Time;durP1;ratioP1;P1;durP2;ratioP2;P2;SDS_P1;SDS_P2;PMS_P1;PMS_P2;Temp;Humidity;BMP_temperature;BMP_pressure;BME280_temperature;BME280_humidity;BME280_pressure;Samples;Min_cycle;Max_cycle;Signal;HPM_P1;HPM_P2
2022/07/06 00:01:51;;;;;;;10.07;2.70;;;;;;;13.93;100.00;102650.41;5045468;28;20107;-77
2022/07/06 00:04:17;;;;;;;13.48;3.03;;;;;;;13.94;100.00;102655.66;5047868;28;20052;-77
2022/07/06 00:06:43;;;;;;;5.88;1.67;;;;;;;13.94;100.00;102655.66;5022256;28;20040;-78
2022/07/06 00:09:09;;;;;;;11.13;2.75;;;;;;;13.96;100.00;102656.38;5044519;28;20554;-78
2022/07/06 00:11:34;;;;;;;13.93;2.65;;;;;;;13.99;100.00;102647.94;5045885;28;20029;-77
2022/07/06 00:14:00;;;;;;;10.93;2.67;;;;;;;13.95;100.00;102651.97;5063319;28;20612;-77
2022/07/06 00:16:26;;;;;;;14.70;3.25;;;;;;;13.93;100.00;102642.31;5030120;28;20025;-77
2022/07/06 00:18:51;;;;;;;13.55;2.95;;;;;;;13.96;100.00;102663.63;5024367;28;20063;-78
2022/07/06 00:21:17;;;;;;;11.15;3.30;;;;;;;13.94;100.00;102658.38;5059564;28;20067;-77
2022/07/06 00:23:43;;;;;;;12.82;2.95;;;;;;;13.94;100.00;102652.97;5065592;28;20493;-77
2022/07/06 00:26:09;;;;;;;12.63;2.70;;;;;;;13.78;100.00;102629.28;5042253;28;20033;-77
2022/07/06 00:28:35;;;;;;;8.75;3.13;;;;;;;13.92;100.00;102640.59;5047505;28;20037;-78
2022/07/06 00:31:01;;;;;;;7.38;2.53;;;;;;;13.90;100.00;102646.16;5063576;28;20127;-77
2022/07/06 00:33:27;;;;;;;8.18;3.00;;;;;;;13.90;100.00;102643.47;5065224;28;20036;-78
2022/07/06 00:35:52;;;;;;;9.45;2.65;;;;;;;13.89;100.00;102641.75;5062346;28;20039;-78
2022/07/06 00:38:18;;;;;;;11.48;2.55;;;;;;;13.83;100.00;102647.75;5055325;28;20032;-78
2022/07/06 00:40:44;;;;;;;10.52;2.30;;;;;;;13.82;100.00;102654.19;5048249;28;20031;-78
2022/07/06 00:43:09;;;;;;;11.50;2.80;;;;;;;13.77;100.00;102634.84;5053659;28;20428;-77
2022/07/06 00:45:35;;;;;;;9.43;2.45;;;;;;;13.68;100.00;102627.63;5054478;28;20076;-77
2022/07/06 00:48:00;;;;;;;11.52;2.63;;;;;;;13.70;100.00;102631.03;5034438;28;20032;-77
2022/07/06 00:50:28;;;;;;;10.85;2.38;;;;;;;13.68;100.00;102631.22;5030965;28;20033;-77
2022/07/06 00:53:05;;;;;;;9.65;3.25;;;;;;;13.74;100.00;102640.56;5067545;28;20487;-77
2022/07/06 00:55:36;;;;;;;3.78;1.90;;;;;;;13.71;100.00;102624.66;5064760;28;20037;-78
2022/07/06 00:58:03;;;;;;;7.07;2.42;;;;;;;13.59;100.00;102622.13;5054438;28;20203;-77
2022/07/06 01:00:28;;;;;;;8.95;2.67;;;;;;;13.60;100.00;102634.66;5048516;28;20032;-78
2022/07/06 01:02:54;;;;;;;5.68;2.15;;;;;;;13.54;100.00;102629.84;5068952;28;22403;-78
2022/07/06 01:05:21;;;;;;;11.38;2.63;;;;;;;13.48;100.00;102635.00;5034801;28;20036;-77
2022/07/06 01:07:48;;;;;;;10.10;3.15;;;;;;;13.49;100.00;102634.00;5065009;28;20024;-78
2022/07/06 01:10:16;;;;;;;9.43;3.15;;;;;;;13.48;100.00;102629.59;5068515;28;20094;-77
2022/07/06 01:12:43;;;;;;;13.40;2.72;;;;;;;13.40;100.00;102619.53;5067082;28;20037;-77
2022/07/06 01:15:10;;;;;;;9.43;2.90;;;;;;;13.46;100.00;102624.34;5048473;28;20047;-77
2022/07/06 01:17:38;;;;;;;9.63;2.13;;;;;;;13.45;100.00;102617.25;5048871;28;20119;-77
2022/07/06 01:20:11;;;;;;;10.10;2.90;;;;;;;13.48;100.00;102622.34;5045986;28;20033;-79
2022/07/06 01:22:38;;;;;;;10.25;2.38;;;;;;;13.45;100.00;102611.00;5048931;28;20056;-77
2022/07/06 01:25:07;;;;;;;9.70;2.67;;;;;;;13.34;100.00;102606.63;5044437;28;20082;-77
2022/07/06 01:27:37;;;;;;;7.97;2.50;;;;;;;13.30;100.00;102605.22;5030148;28;20133;-77
2022/07/06 01:30:08;;;;;;;7.28;2.10;;;;;;;13.22;100.00;102595.13;5034670;28;20178;-77
2022/07/06 01:32:34;;;;;;;14.32;2.85;;;;;;;13.16;100.00;102599.25;5036314;28;20036;-78
2022/07/06 01:35:00;;;;;;;11.57;3.75;;;;;;;13.12;100.00;102595.13;5049924;28;20035;-78
2022/07/06 01:37:26;;;;;;;7.10;2.08;;;;;;;13.08;100.00;102591.06;5033998;28;20075;-76
2022/07/06 01:39:51;;;;;;;9.15;2.22;;;;;;;13.05;100.00;102590.50;5019524;28;20037;-77
2022/07/06 01:42:17;;;;;;;6.85;2.03;;;;;;;13.05;100.00;102587.81;5034561;28;20129;-77
2022/07/06 01:44:44;;;;;;;11.82;2.70;;;;;;;13.14;100.00;102595.84;5065031;28;20032;-77
2022/07/06 01:47:11;;;;;;;9.10;2.70;;;;;;;13.17;100.00;102589.31;5042866;28;20047;-77
2022/07/06 01:49:36;;;;;;;11.05;2.45;;;;;;;13.07;100.00;102581.25;5070040;28;20036;-76
2022/07/06 01:52:03;;;;;;;9.55;2.30;;;;;;;12.99;100.00;102586.50;5032305;28;20074;-77
2022/07/06 01:54:28;;;;;;;9.10;2.20;;;;;;;13.02;100.00;102591.66;5028011;28;20131;-77
2022/07/06 01:56:54;;;;;;;8.77;2.42;;;;;;;12.98;100.00;102576.72;5069929;28;20044;-76
2022/07/06 01:59:19;;;;;;;8.05;2.83;;;;;;;13.14;100.00;102582.34;5067366;28;20032;-77
2022/07/06 02:01:48;;;;;;;8.73;1.95;;;;;;;13.22;100.00;102584.31;5064140;28;20067;-78
2022/07/06 02:04:13;;;;;;;11.52;2.72;;;;;;;13.14;100.00;102570.69;5065231;28;20289;-77
2022/07/06 02:06:39;;;;;;;10.15;3.60;;;;;;;13.11;100.00;102562.91;5035441;28;20131;-76
2022/07/06 02:09:04;;;;;;;7.28;2.20;;;;;;;13.16;100.00;102568.72;5056643;28;20117;-77
2022/07/06 02:11:30;;;;;;;4.63;2.25;;;;;;;13.15;100.00;102575.09;5062746;28;20044;-76
2022/07/06 02:13:56;;;;;;;4.38;2.20;;;;;;;13.03;100.00;102554.69;5061515;28;20450;-77
2022/07/06 02:16:21;;;;;;;8.65;2.15;;;;;;;13.15;100.00;102577.78;5065996;28;20028;-78
2022/07/06 02:18:47;;;;;;;8.77;2.63;;;;;;;13.16;100.00;102569.56;5061045;28;20471;-77
2022/07/06 02:21:12;;;;;;;12.43;2.80;;;;;;;13.18;100.00;102567.56;5042722;28;20029;-77
2022/07/06 02:23:38;;;;;;;7.63;2.17;;;;;;;13.26;100.00;102571.34;5066864;28;20043;-79
2022/07/06 02:26:04;;;;;;;10.10;2.55;;;;;;;13.32;100.00;102573.50;5067139;28;20462;-77
2022/07/06 02:28:30;;;;;;;6.40;2.13;;;;;;;13.36;100.00;102578.47;5041317;28;20035;-76
2022/07/06 02:30:55;;;;;;;8.88;2.08;;;;;;;13.40;100.00;102571.75;5062241;28;20127;-77
2022/07/06 02:33:21;;;;;;;8.00;2.30;;;;;;;13.43;100.00;102567.88;5067271;28;20072;-77
2022/07/06 02:35:46;;;;;;;8.07;2.33;;;;;;;13.44;100.00;102557.94;5066621;28;20020;-76
2022/07/06 02:38:12;;;;;;;10.15;2.30;;;;;;;13.37;100.00;102536.94;5060024;28;20031;-77
2022/07/06 02:40:38;;;;;;;3.95;1.98;;;;;;;13.48;100.00;102554.78;5039375;28;20088;-78
2022/07/06 02:43:04;;;;;;;11.63;2.10;;;;;;;13.51;100.00;102553.63;5034689;28;20036;-77
2022/07/06 02:45:30;;;;;;;6.10;1.98;;;;;;;13.46;100.00;102540.56;5043549;28;20489;-78
2022/07/06 02:47:58;;;;;;;8.80;2.45;;;;;;;13.50;100.00;102541.97;5051364;28;20080;-77
2022/07/06 02:50:24;;;;;;;6.57;2.22;;;;;;;13.55;100.00;102544.22;5061336;28;20126;-77
2022/07/06 02:52:50;;;;;;;6.30;2.15;;;;;;;13.56;100.00;102545.91;5047618;28;20040;-78
2022/07/06 02:55:16;;;;;;;6.32;2.33;;;;;;;13.56;100.00;102552.16;5047776;28;20066;-77
2022/07/06 02:57:42;;;;;;;9.23;2.45;;;;;;;13.56;100.00;102551.31;5048012;28;20036;-77
2022/07/06 03:00:09;;;;;;;9.65;3.55;;;;;;;13.62;100.00;102553.41;5045751;28;20032;-76
2022/07/06 03:02:35;;;;;;;11.15;2.60;;;;;;;13.60;100.00;102547.28;5025667;28;20028;-78
2022/07/06 03:05:00;;;;;;;11.70;2.90;;;;;;;13.62;100.00;102546.16;5041657;28;20205;-78
2022/07/06 03:07:26;;;;;;;12.82;2.63;;;;;;;13.62;100.00;102556.97;5040817;28;20032;-78
2022/07/06 03:09:52;;;;;;;9.73;2.63;;;;;;;13.61;100.00;102549.88;5045322;28;20040;-76
2022/07/06 03:12:17;;;;;;;7.10;2.58;;;;;;;13.59;100.00;102546.47;5048316;28;20517;-77
2022/07/06 03:14:43;;;;;;;8.23;2.72;;;;;;;13.61;100.00;102541.75;5040615;28;20696;-76
2022/07/06 03:17:09;;;;;;;7.05;2.35;;;;;;;13.58;100.00;102549.31;5026135;28;20385;-77
2022/07/06 03:19:34;;;;;;;7.45;1.92;;;;;;;13.51;100.00;102543.66;5063831;28;20090;-76
2022/07/06 03:22:00;;;;;;;7.35;2.30;;;;;;;13.47;100.00;102547.69;5043135;28;20032;-77
2022/07/06 03:24:25;;;;;;;10.15;2.20;;;;;;;13.43;100.00;102534.63;5045708;28;20417;-76
2022/07/06 03:26:51;;;;;;;8.95;2.45;;;;;;;13.54;100.00;102545.22;5040289;28;20040;-76
2022/07/06 03:29:17;;;;;;;11.20;2.60;;;;;;;13.51;100.00;102543.66;5040197;28;20071;-76
2022/07/06 03:31:42;;;;;;;8.85;2.53;;;;;;;13.53;100.00;102541.66;5036589;28;20044;-76
2022/07/06 03:34:08;;;;;;;7.30;2.50;;;;;;;13.52;100.00;102542.69;5043332;28;20070;-76
2022/07/06 03:36:33;;;;;;;9.65;2.40;;;;;;;13.53;100.00;102544.38;5064787;28;20040;-76
2022/07/06 03:39:01;;;;;;;8.90;2.90;;;;;;;13.52;100.00;102541.81;5025786;28;20113;-77
2022/07/06 03:41:27;;;;;;;8.10;2.95;;;;;;;13.50;100.00;102530.31;5049031;28;20032;-76
2022/07/06 03:43:56;;;;;;;8.07;3.03;;;;;;;13.57;100.00;102540.34;5062852;28;20059;-76
2022/07/06 03:46:21;;;;;;;8.57;2.53;;;;;;;13.59;100.00;102542.91;5031630;28;20399;-76
2022/07/06 03:48:47;;;;;;;6.63;2.67;;;;;;;13.56;100.00;102537.81;5059743;28;20033;-76
2022/07/06 03:51:12;;;;;;;8.40;2.35;;;;;;;13.61;100.00;102549.88;5040915;28;20474;-76
2022/07/06 03:53:38;;;;;;;12.93;2.97;;;;;;;13.56;100.00;102551.31;5063291;28;20095;-77
2022/07/06 03:58:48;;;;;;;8.65;2.70;;;;;;;13.57;100.00;102558.41;5046286;28;20082;-78
2022/07/06 04:01:13;;;;;;;8.80;2.67;;;;;;;13.60;100.00;102564.38;5038519;28;20032;-78
2022/07/06 04:03:39;;;;;;;9.27;3.53;;;;;;;13.62;100.00;102573.19;5042222;28;20734;-76
2022/07/06 04:06:05;;;;;;;8.40;2.60;;;;;;;13.60;100.00;102566.22;5060377;28;20025;-77
2022/07/06 04:08:30;;;;;;;6.07;2.45;;;;;;;13.56;100.00;102565.69;5050041;28;20275;-76
2022/07/06 04:10:56;;;;;;;8.00;2.20;;;;;;;13.64;100.00;102573.03;5043356;28;20029;-76
2022/07/06 04:13:22;;;;;;;15.10;2.72;;;;;;;13.67;100.00;102578.13;5028440;28;20425;-77
2022/07/06 04:15:48;;;;;;;10.57;3.33;;;;;;;13.69;100.00;102578.84;5063004;28;20028;-77
2022/07/06 04:18:13;;;;;;;9.18;2.65;;;;;;;13.67;100.00;102574.59;5046214;28;20028;-76
2022/07/06 04:20:39;;;;;;;10.90;2.30;;;;;;;13.66;100.00;102570.19;5038629;28;20486;-77
2022/07/06 04:23:04;;;;;;;10.70;2.67;;;;;;;13.72;100.00;102574.97;5057657;28;20093;-76
2022/07/06 04:25:30;;;;;;;9.98;2.40;;;;;;;13.78;100.00;102561.69;5037056;28;20082;-76
2022/07/06 04:27:56;;;;;;;9.65;2.20;;;;;;;13.74;100.00;102567.59;5061097;28;20035;-76
2022/07/06 04:30:21;;;;;;;8.13;2.00;;;;;;;13.77;100.00;102568.13;5062704;28;20570;-76
2022/07/06 04:32:47;;;;;;;8.02;2.90;;;;;;;13.75;100.00;102561.16;5045146;28;20056;-77
2022/07/06 04:35:13;;;;;;;8.10;2.63;;;;;;;13.79;100.00;102568.81;5050653;28;20029;-77
2022/07/06 04:37:39;;;;;;;7.60;2.78;;;;;;;13.79;100.00;102559.88;5043633;28;20033;-76
2022/07/06 04:40:05;;;;;;;12.02;2.78;;;;;;;13.76;100.00;102554.72;5053865;28;20063;-76
2022/07/06 04:42:30;;;;;;;7.72;2.50;;;;;;;13.84;100.00;102565.66;5026810;28;20493;-77
2022/07/06 04:44:56;;;;;;;9.20;2.65;;;;;;;13.76;100.00;102541.22;5044610;28;20041;-76
2022/07/06 04:47:22;;;;;;;10.55;2.22;;;;;;;13.88;100.00;102555.38;5046693;28;20405;-78
2022/07/06 04:49:47;;;;;;;5.22;2.22;;;;;;;13.86;100.00;102544.69;5045993;28;20029;-75
2022/07/06 04:52:13;;;;;;;7.10;2.42;;;;;;;13.91;100.00;102545.09;5054113;28;20083;-77
2022/07/06 04:54:39;;;;;;;7.80;2.42;;;;;;;13.90;100.00;102545.25;5044483;28;20036;-76
2022/07/06 04:57:04;;;;;;;8.45;2.75;;;;;;;13.97;100.00;102544.50;5061584;28;20616;-76
2022/07/06 04:59:30;;;;;;;8.07;2.45;;;;;;;13.95;100.00;102540.25;5063837;28;20052;-76
2022/07/06 05:01:56;;;;;;;7.28;2.88;;;;;;;13.93;100.00;102534.97;5034887;28;20028;-78
2022/07/06 05:04:22;;;;;;;9.85;2.80;;;;;;;14.03;100.00;102549.28;5043335;28;20122;-77
2022/07/06 05:06:47;;;;;;;6.32;1.85;;;;;;;14.04;100.00;102542.00;5042231;28;20037;-76
2022/07/06 05:09:13;;;;;;;6.95;2.35;;;;;;;13.99;100.00;102536.22;5037620;28;20371;-75
2022/07/06 05:11:39;;;;;;;8.48;2.30;;;;;;;14.08;100.00;102536.16;5053700;28;20024;-76
2022/07/06 05:14:05;;;;;;;6.30;2.95;;;;;;;14.13;100.00;102548.34;5062388;28;20044;-77
2022/07/06 05:16:31;;;;;;;7.35;2.47;;;;;;;14.08;100.00;102538.84;5063879;28;20028;-76
2022/07/06 05:18:56;;;;;;;10.90;2.75;;;;;;;14.07;100.00;102528.16;5033432;28;20032;-76
2022/07/06 05:21:22;;;;;;;6.13;2.25;;;;;;;14.20;100.00;102550.25;5060615;28;20387;-77
2022/07/06 05:23:48;;;;;;;8.35;2.33;;;;;;;14.12;100.00;102522.31;5060144;28;20040;-76
2022/07/06 05:26:13;;;;;;;8.07;2.30;;;;;;;14.32;100.00;102545.47;5035650;28;20029;-77
2022/07/06 05:28:39;;;;;;;6.68;2.20;;;;;;;14.38;100.00;102547.53;5050201;28;20048;-76
2022/07/06 05:31:05;;;;;;;8.40;2.35;;;;;;;14.47;100.00;102554.72;5052198;28;20033;-76
2022/07/06 05:33:30;;;;;;;7.72;2.20;;;;;;;14.54;100.00;102559.53;5049788;28;20032;-76
2022/07/06 05:35:56;;;;;;;7.65;2.55;;;;;;;14.61;100.00;102552.50;5061172;28;20039;-76
2022/07/06 05:38:21;;;;;;;5.43;2.28;;;;;;;14.70;100.00;102568.63;5063231;28;20043;-77
2022/07/06 05:40:47;;;;;;;7.22;3.10;;;;;;;14.77;100.00;102565.28;5055839;28;20509;-76
2022/07/06 05:43:12;;;;;;;8.10;2.45;;;;;;;14.84;100.00;102569.03;5045427;28;20127;-77
2022/07/06 05:45:38;;;;;;;5.72;1.65;;;;;;;14.89;100.00;102559.41;5044062;28;20033;-76
2022/07/06 05:50:48;;;;;;;9.02;2.50;;;;;;;15.00;100.00;102558.28;5060324;28;20052;-77
2022/07/06 05:53:16;;;;;;;7.30;2.85;;;;;;;15.02;100.00;102560.84;5059226;28;20024;-76
2022/07/06 05:55:45;;;;;;;11.20;2.67;;;;;;;14.98;100.00;102559.47;5031692;28;20153;-76
2022/07/06 05:58:16;;;;;;;8.60;2.22;;;;;;;14.99;100.00;102558.47;5041802;28;20051;-77
2022/07/06 06:00:53;;;;;;;6.75;2.85;;;;;;;14.93;100.00;102551.84;5063526;28;21388;-78
2022/07/06 06:03:19;;;;;;;6.47;2.30;;;;;;;14.99;100.00;102563.88;5049477;28;20029;-77
2022/07/06 06:05:45;;;;;;;12.45;2.38;;;;;;;15.01;100.00;102570.84;5048931;28;20037;-76
2022/07/06 06:08:11;;;;;;;8.40;2.42;;;;;;;14.92;100.00;102555.53;5047297;28;20429;-76
2022/07/06 06:10:36;;;;;;;7.43;2.50;;;;;;;14.99;100.00;102574.72;5031881;28;20037;-76
2022/07/06 06:13:02;;;;;;;10.32;2.45;;;;;;;15.02;100.00;102566.28;5062592;28;20039;-77
2022/07/06 06:15:28;;;;;;;10.27;2.55;;;;;;;15.07;100.00;102566.63;5048092;28;20470;-76
2022/07/06 06:17:53;;;;;;;6.90;1.77;;;;;;;15.11;100.00;102570.72;5057501;28;20028;-77
2022/07/06 06:20:19;;;;;;;4.25;1.98;;;;;;;15.14;100.00;102565.00;5049951;28;20497;-78
2022/07/06 06:22:52;;;;;;;8.27;2.15;;;;;;;15.14;100.00;102571.25;5048802;28;20044;-77
2022/07/06 06:25:19;;;;;;;;;;;;;;;15.10;100.00;102574.44;5026860;28;20039;-76
2022/07/06 06:27:45;;;;;;;7.65;2.63;;;;;;;15.05;100.00;102571.38;5060531;28;19917;-80
2022/07/06 06:30:11;;;;;;;6.57;2.30;;;;;;;14.98;100.00;102575.72;5045413;28;20033;-76
2022/07/06 06:32:37;;;;;;;10.52;2.40;;;;;;;14.87;100.00;102563.28;5048446;28;20097;-76
2022/07/06 06:35:04;;;;;;;8.45;2.30;;;;;;;14.97;100.00;102572.16;5045827;28;20040;-77
2022/07/06 06:37:29;;;;;;;5.65;2.58;;;;;;;14.98;100.00;102570.28;5063708;28;20093;-76
2022/07/06 06:39:55;;;;;;;8.23;2.80;;;;;;;14.81;100.00;102535.00;5027464;28;20453;-76
2022/07/06 06:42:20;;;;;;;4.95;2.30;;;;;;;15.11;100.00;102573.41;5042336;28;20045;-77
2022/07/06 06:44:46;;;;;;;4.35;1.98;;;;;;;15.20;100.00;102582.47;5045450;28;20063;-77
2022/07/06 06:47:12;;;;;;;6.47;2.17;;;;;;;15.27;100.00;102578.94;5058263;28;20048;-78
2022/07/06 06:49:37;;;;;;;7.47;2.45;;;;;;;15.33;100.00;102580.16;5029066;28;20497;-78
2022/07/06 06:52:03;;;;;;;4.75;2.03;;;;;;;15.37;100.00;102586.94;5064030;28;20067;-78
2022/07/06 06:54:29;;;;;;;4.40;1.90;;;;;;;15.38;100.00;102567.81;5067527;28;20048;-78
2022/07/06 06:56:54;;;;;;;7.47;2.10;;;;;;;15.53;99.05;102580.72;5042019;28;20619;-80
2022/07/06 06:59:20;;;;;;;5.50;1.90;;;;;;;15.51;99.05;102585.47;5046377;28;20025;-78
2022/07/06 07:01:48;;;;;;;3.28;1.88;;;;;;;15.45;99.14;102572.56;5031154;28;20041;-78
2022/07/06 07:04:16;;;;;;;8.13;2.30;;;;;;;15.39;98.74;102571.34;5037258;28;20144;-76
2022/07/06 07:06:41;;;;;;;7.15;2.30;;;;;;;15.40;98.55;102581.19;5056493;28;20469;-79
2022/07/06 07:09:07;;;;;;;6.25;2.45;;;;;;;15.39;98.24;102585.75;5055617;28;20035;-76
2022/07/06 07:11:33;;;;;;;6.78;2.65;;;;;;;15.27;98.82;102568.09;5054406;28;20037;-76
2022/07/06 07:14:00;;;;;;;7.20;2.15;;;;;;;15.40;98.61;102581.19;5042739;28;20529;-76
2022/07/06 07:16:26;;;;;;;5.03;2.15;;;;;;;15.48;98.48;102583.94;5035888;28;20036;-76
2022/07/06 07:18:52;;;;;;;9.10;2.63;;;;;;;15.50;98.72;102583.75;5041772;28;20055;-77
2022/07/06 07:21:18;;;;;;;6.80;2.60;;;;;;;15.56;98.80;102581.25;5054322;28;20398;-76
2022/07/06 07:23:43;;;;;;;8.85;2.90;;;;;;;15.58;98.14;102576.50;5044773;28;20028;-76
2022/07/06 07:26:09;;;;;;;6.18;2.60;;;;;;;15.73;97.61;102592.19;5018059;28;20047;-77
2022/07/06 07:28:37;;;;;;;11.25;2.88;;;;;;;15.84;97.08;102583.72;5055395;28;20043;-75
2022/07/06 07:31:03;;;;;;;9.65;3.08;;;;;;;15.94;97.03;102589.84;5061003;28;20041;-75
2022/07/06 07:33:29;;;;;;;10.57;3.00;;;;;;;16.01;96.77;102590.06;5047095;28;20020;-76
2022/07/06 07:35:54;;;;;;;7.47;2.78;;;;;;;16.14;96.57;102594.97;5027383;28;20040;-77
2022/07/06 07:38:20;;;;;;;14.27;3.85;;;;;;;16.36;95.97;102594.31;5052989;28;20091;-76
2022/07/06 07:40:46;;;;;;;8.68;2.70;;;;;;;16.53;93.66;102594.31;5018895;28;20434;-76
2022/07/06 07:43:11;;;;;;;10.27;2.60;;;;;;;16.52;93.11;102607.03;5050959;28;20107;-76
2022/07/06 07:45:37;;;;;;;7.43;2.38;;;;;;;16.39;93.90;102604.00;5033950;28;20036;-77
2022/07/06 07:48:03;;;;;;;8.80;2.28;;;;;;;16.30;94.20;102589.56;5029459;28;20047;-76
2022/07/06 07:50:31;;;;;;;8.95;2.78;;;;;;;16.39;94.21;102598.56;5045454;28;20072;-76
2022/07/06 07:52:57;;;;;;;6.57;2.80;;;;;;;16.55;92.72;102603.97;5041093;28;20056;-77
2022/07/06 07:55:23;;;;;;;9.35;3.20;;;;;;;16.69;91.52;102600.56;5060517;28;20040;-77
2022/07/06 07:57:49;;;;;;;6.68;2.78;;;;;;;16.81;90.95;102590.25;5032613;28;20077;-76
2022/07/06 08:00:14;;;;;;;7.97;2.15;;;;;;;16.99;90.29;102611.78;5050461;28;20044;-76
2022/07/06 08:02:40;;;;;;;8.82;3.05;;;;;;;17.16;89.27;102611.75;5050319;28;20042;-77
2022/07/06 08:05:13;;;;;;;10.93;2.85;;;;;;;17.36;87.09;102603.00;5055993;28;20036;-77
2022/07/06 08:07:38;;;;;;;7.18;2.95;;;;;;;17.81;85.38;102592.47;5042537;28;20470;-77
2022/07/06 08:10:04;;;;;;;9.75;2.88;;;;;;;18.37;82.34;102593.06;5044250;28;20037;-77
2022/07/06 08:12:30;;;;;;;8.45;2.83;;;;;;;18.68;79.95;102586.66;5026415;28;20074;-76
2022/07/06 08:14:55;;;;;;;13.10;2.72;;;;;;;19.01;77.49;102589.94;5061555;28;20100;-76
2022/07/06 08:17:21;;;;;;;10.32;2.38;;;;;;;19.25;76.93;102583.34;5058349;28;20039;-77
2022/07/06 08:19:47;;;;;;;7.43;2.65;;;;;;;19.54;74.37;102587.09;5032222;28;20078;-77
2022/07/06 08:22:12;;;;;;;8.57;2.53;;;;;;;19.79;72.62;102586.75;5063409;28;20063;-76
2022/07/06 08:24:38;;;;;;;8.68;2.78;;;;;;;20.36;68.86;102591.34;5052322;28;20051;-77
2022/07/06 08:27:04;;;;;;;8.07;2.05;;;;;;;20.20;68.33;102592.47;5048806;28;20032;-78
2022/07/06 08:29:30;;;;;;;7.90;2.35;;;;;;;19.95;70.61;102584.66;5034810;28;20037;-77
2022/07/06 08:31:55;;;;;;;10.80;2.38;;;;;;;19.37;72.37;102581.00;5038415;28;20040;-76
2022/07/06 08:34:22;;;;;;;7.35;2.50;;;;;;;18.73;76.30;102584.22;5030077;28;20036;-77
2022/07/06 08:36:47;;;;;;;3.35;1.83;;;;;;;18.21;77.82;102576.88;5063898;28;20040;-77
2022/07/06 08:39:13;;;;;;;5.90;2.00;;;;;;;18.20;79.05;102570.56;5064508;28;20319;-76
2022/07/06 08:41:41;;;;;;;6.30;2.65;;;;;;;18.54;77.69;102576.59;5049550;28;20133;-76
2022/07/06 08:44:08;;;;;;;5.75;1.95;;;;;;;18.83;73.96;102557.56;5059797;28;20029;-76
2022/07/06 08:46:35;;;;;;;7.15;2.22;;;;;;;19.46;73.10;102590.75;5040628;28;20059;-78
2022/07/06 08:49:01;;;;;;;8.75;2.10;;;;;;;19.66;72.15;102585.59;5060889;28;20025;-77
2022/07/06 08:51:27;;;;;;;5.57;2.38;;;;;;;19.79;69.58;102592.22;5047003;28;20428;-79
2022/07/06 08:53:53;;;;;;;6.45;2.08;;;;;;;19.24;73.30;102592.56;5038224;28;20039;-79
2022/07/06 08:56:19;;;;;;;6.05;2.28;;;;;;;18.75;74.04;102582.19;5043003;28;20160;-78
2022/07/06 08:58:45;;;;;;;4.93;1.90;;;;;;;18.37;76.45;102581.34;5078626;28;20077;-78
2022/07/06 09:01:10;;;;;;;7.95;2.30;;;;;;;18.35;77.38;102588.84;5068996;28;20123;-80
2022/07/06 09:03:36;;;;;;;8.77;2.55;;;;;;;18.24;77.89;102592.84;5068216;28;20087;-82
2022/07/06 09:06:03;;;;;;;5.65;2.38;;;;;;;18.22;78.71;102586.72;5051062;28;20037;-77
2022/07/06 09:08:30;;;;;;;7.43;2.45;;;;;;;18.21;78.45;102590.47;5044087;28;20036;-78
2022/07/06 09:10:56;;;;;;;9.02;2.17;;;;;;;18.22;78.94;102582.13;5055023;28;20040;-77
2022/07/06 09:13:22;;;;;;;6.28;2.40;;;;;;;18.00;80.18;102582.97;5079227;28;20040;-77
2022/07/06 09:15:47;;;;;;;7.57;2.33;;;;;;;18.03;80.67;102588.06;5079700;28;20437;-78
2022/07/06 09:18:13;;;;;;;7.57;2.25;;;;;;;18.16;78.78;102587.47;5051515;28;20021;-79
2022/07/06 09:20:40;;;;;;;7.88;2.67;;;;;;;18.15;79.55;102593.91;5074517;28;20034;-79
2022/07/06 09:23:06;;;;;;;9.80;2.70;;;;;;;17.98;80.05;102594.03;5062858;28;20052;-78
2022/07/06 09:25:34;;;;;;;10.27;2.45;;;;;;;17.90;80.47;102585.94;5050942;28;20120;-79
2022/07/06 09:28:00;;;;;;;9.77;2.55;;;;;;;17.81;81.87;102592.47;5074734;28;20057;-78
2022/07/06 09:30:28;;;;;;;14.07;2.88;;;;;;;17.75;83.31;102591.25;5033531;28;20125;-79
2022/07/06 09:32:56;;;;;;;7.43;2.90;;;;;;;17.72;83.52;102590.75;5062225;28;20128;-77
2022/07/06 09:35:29;;;;;;;6.00;1.55;;;;;;;17.81;83.55;102584.28;5032222;28;20482;-79
2022/07/06 09:38:02;;;;;;;7.18;2.20;;;;;;;17.89;83.15;102597.84;5034975;28;20029;-77
2022/07/06 09:40:30;;;;;;;6.78;2.30;;;;;;;17.90;83.18;102594.09;5055748;28;20169;-77
2022/07/06 09:43:19;;;;;;;5.35;1.73;;;;;;;17.84;81.74;102566.75;5086517;28;20040;-79
2022/07/06 09:45:55;;;;;;;5.90;1.70;;;;;;;18.07;81.08;102583.94;5038783;28;20032;-78
2022/07/06 09:48:22;;;;;;;4.78;1.33;;;;;;;18.37;79.39;102594.94;5060080;28;20029;-77
2022/07/06 09:50:56;;;;;;;3.60;1.30;;;;;;;18.49;79.63;102589.91;5067934;28;20111;-79
2022/07/06 09:53:24;;;;;;;3.63;1.05;;;;;;;18.41;78.36;102582.66;5042184;28;20035;-77
2022/07/06 09:55:51;;;;;;;3.65;1.45;;;;;;;18.58;78.47;102586.09;5041404;28;20474;-77
2022/07/06 09:58:17;;;;;;;6.00;1.45;;;;;;;18.54;78.05;102568.41;5032610;28;20040;-77
2022/07/06 10:00:44;;;;;;;6.45;1.55;;;;;;;19.16;76.06;102587.22;5067060;28;20032;-80
2022/07/06 10:03:10;;;;;;;3.95;1.17;;;;;;;19.77;73.98;102596.00;5068932;28;20537;-78
2022/07/06 10:05:37;;;;;;;3.35;1.15;;;;;;;19.82;72.81;102602.75;5067205;28;20095;-75
2022/07/06 10:08:09;;;;;;;2.35;0.85;;;;;;;19.62;73.27;102594.31;5060030;28;20470;-75
2022/07/06 10:11:04;;;;;;;1.55;1.00;;;;;;;19.46;73.35;102588.03;5033774;28;20032;-75
2022/07/06 10:13:30;;;;;;;2.03;0.93;;;;;;;19.30;74.76;102594.53;5027199;28;20059;-75
2022/07/06 10:15:57;;;;;;;2.10;0.80;;;;;;;19.23;75.38;102579.94;5073430;28;20036;-75
2022/07/06 10:18:23;;;;;;;2.83;0.80;;;;;;;19.66;74.86;102593.78;5061909;28;20028;-77
2022/07/06 10:20:49;;;;;;;2.05;0.90;;;;;;;20.13;73.05;102586.91;5063544;28;20037;-75
2022/07/06 10:23:15;;;;;;;1.65;0.70;;;;;;;20.77;69.22;102583.31;5059265;28;20086;-75
2022/07/06 10:25:41;;;;;;;1.20;0.70;;;;;;;20.81;69.22;102579.13;5051379;28;20417;-77
2022/07/06 10:28:13;;;;;;;0.60;0.60;;;;;;;20.73;70.40;102587.47;5040189;28;20127;-76
2022/07/06 10:30:39;;;;;;;1.43;0.80;;;;;;;20.72;71.37;102582.19;5046211;28;20094;-77
2022/07/06 10:33:05;;;;;;;0.95;0.60;;;;;;;20.63;71.75;102579.63;5061403;28;20033;-75
2022/07/06 10:35:31;;;;;;;0.98;0.50;;;;;;;20.40;71.51;102589.91;5069518;28;20035;-75
2022/07/06 10:38:09;;;;;;;1.10;0.60;;;;;;;19.92;74.01;102589.63;5032660;28;20036;-76
2022/07/06 10:43:21;;;;;;;0.52;0.50;;;;;;;19.58;75.50;102580.19;5061803;28;20061;-78
2022/07/06 10:45:46;;;;;;;1.25;0.70;;;;;;;19.22;76.79;102586.47;5058594;28;20047;-78
2022/07/06 10:48:12;;;;;;;1.40;0.90;;;;;;;18.78;79.49;102578.25;5080097;28;20700;-77
2022/07/06 10:50:47;;;;;;;2.10;0.88;;;;;;;18.20;83.08;102577.88;5075044;28;20035;-76
2022/07/06 10:53:14;;;;;;;0.68;0.60;;;;;;;18.04;85.30;102580.72;5059780;28;20033;-77
2022/07/06 10:55:42;;;;;;;2.90;0.90;;;;;;;17.99;85.70;102586.72;5066831;28;20091;-77
2022/07/06 10:58:08;;;;;;;1.17;0.80;;;;;;;18.07;86.54;102593.97;5031474;28;20040;-76
2022/07/06 11:00:53;;;;;;;2.58;1.00;;;;;;;18.25;85.86;102591.78;5063960;28;20028;-79
2022/07/06 11:03:44;;;;;;;2.30;1.30;;;;;;;18.52;85.65;102586.81;5053766;28;20036;-75
2022/07/06 11:06:20;;;;;;;2.28;1.20;;;;;;;18.57;85.28;102587.94;5063161;28;20032;-76
2022/07/06 11:08:46;;;;;;;3.88;1.50;;;;;;;18.52;85.09;102592.25;5067602;28;20112;-74
2022/07/06 11:11:31;;;;;;;3.47;1.20;;;;;;;18.61;84.50;102583.00;5074083;28;20127;-76
2022/07/06 11:14:12;;;;;;;2.70;1.30;;;;;;;18.64;84.58;102582.63;5052341;28;20056;-75
2022/07/06 11:16:46;;;;;;;4.43;2.03;;;;;;;18.83;84.05;102589.44;5059852;28;20041;-77
2022/07/06 11:19:20;;;;;;;1.90;1.58;;;;;;;18.97;82.37;102583.16;5055839;28;20075;-76
2022/07/06 11:21:49;;;;;;;5.15;1.77;;;;;;;19.20;82.26;102582.22;5066132;28;20093;-75
2022/07/06 11:24:19;;;;;;;3.40;1.70;;;;;;;19.90;77.30;102581.66;5062581;28;20025;-77
2022/07/06 11:26:47;;;;;;;2.80;1.60;;;;;;;19.95;76.95;102535.50;5048022;28;20139;-75